Terminal Aerodrome Forecast
Issued by NWS

Home | Current Version | Previous Version | Text Only | Print | Product List | Glossary On
Versions: 1 2 3 4 5 6 7 8 9 10 11 12 13 14 15 16 17 18
273
FTUS44 KLZK 270529
TAFLIT
TAF
KLIT 270529Z 2706/2806 05006KT P6SM -SHRA VCTS SCT015CB OVC050
     FM270900 06006KT 6SM -RA BR VCTS BKN025CB OVC040
     FM271100 08005KT 4SM -RA BR VCTS OVC010CB
     FM271400 10008KT 6SM BR VCSH OVC025
     FM271800 10006KT P6SM VCSH SCT030 BKN050 OVC100=

USA.gov is the U.S. government's official web portal to all federal, state and local government web resources and services.